sensor_id;sensor_type;location;lat;lon;timestamp;P1;durP1;ratioP1;P2;durP2;ratioP2
58518;SDS011;44310;48.106;12.008;2022-11-11T00:01:06;13.35;;;3.65;;
58518;SDS011;44310;48.106;12.008;2022-11-11T00:03:38;9.13;;;2.67;;
58518;SDS011;44310;48.106;12.008;2022-11-11T00:06:11;6.35;;;2.25;;
58518;SDS011;44310;48.106;12.008;2022-11-11T00:08:40;9.02;;;2.80;;
58518;SDS011;44310;48.106;12.008;2022-11-11T00:11:08;12.90;;;2.97;;
58518;SDS011;44310;48.106;12.008;2022-11-11T00:13:37;8.73;;;2.47;;
58518;SDS011;44310;48.106;12.008;2022-11-11T00:16:09;10.82;;;2.67;;
58518;SDS011;44310;48.106;12.008;2022-11-11T00:18:41;9.38;;;2.63;;
58518;SDS011;44310;48.106;12.008;2022-11-11T00:21:28;14.82;;;3.40;;
58518;SDS011;44310;48.106;12.008;2022-11-11T00:24:25;8.68;;;2.50;;
58518;SDS011;44310;48.106;12.008;2022-11-11T00:27:12;11.88;;;2.88;;
58518;SDS011;44310;48.106;12.008;2022-11-11T00:29:40;18.17;;;3.63;;
58518;SDS011;44310;48.106;12.008;2022-11-11T00:32:20;11.23;;;3.30;;
58518;SDS011;44310;48.106;12.008;2022-11-11T00:34:51;14.43;;;3.00;;
58518;SDS011;44310;48.106;12.008;2022-11-11T00:38:09;11.68;;;3.10;;
58518;SDS011;44310;48.106;12.008;2022-11-11T00:41:25;13.38;;;3.33;;
58518;SDS011;44310;48.106;12.008;2022-11-11T00:43:56;14.85;;;3.60;;
58518;SDS011;44310;48.106;12.008;2022-11-11T00:47:00;13.00;;;3.30;;
58518;SDS011;44310;48.106;12.008;2022-11-11T00:50:18;20.45;;;3.33;;
58518;SDS011;44310;48.106;12.008;2022-11-11T00:53:47;23.13;;;4.18;;
58518;SDS011;44310;48.106;12.008;2022-11-11T00:57:14;25.10;;;4.20;;
58518;SDS011;44310;48.106;12.008;2022-11-11T01:00:20;10.32;;;3.33;;
58518;SDS011;44310;48.106;12.008;2022-11-11T01:02:50;16.50;;;3.55;;
58518;SDS011;44310;48.106;12.008;2022-11-11T01:05:26;24.57;;;5.07;;
58518;SDS011;44310;48.106;12.008;2022-11-11T01:07:53;19.20;;;3.78;;
58518;SDS011;44310;48.106;12.008;2022-11-11T01:10:21;15.98;;;3.33;;
58518;SDS011;44310;48.106;12.008;2022-11-11T01:13:05;15.30;;;3.50;;
58518;SDS011;44310;48.106;12.008;2022-11-11T01:15:41;9.67;;;2.80;;
58518;SDS011;44310;48.106;12.008;2022-11-11T01:18:37;14.10;;;2.95;;
58518;SDS011;44310;48.106;12.008;2022-11-11T01:21:32;11.57;;;3.25;;
58518;SDS011;44310;48.106;12.008;2022-11-11T01:24:01;14.65;;;3.50;;
58518;SDS011;44310;48.106;12.008;2022-11-11T01:26:28;10.43;;;2.55;;
58518;SDS011;44310;48.106;12.008;2022-11-11T01:29:23;14.57;;;3.05;;
58518;SDS011;44310;48.106;12.008;2022-11-11T01:31:52;10.75;;;2.75;;
58518;SDS011;44310;48.106;12.008;2022-11-11T01:34:19;11.93;;;2.92;;
58518;SDS011;44310;48.106;12.008;2022-11-11T01:36:47;31.52;;;6.50;;
58518;SDS011;44310;48.106;12.008;2022-11-11T01:39:14;23.73;;;4.57;;
58518;SDS011;44310;48.106;12.008;2022-11-11T01:42:09;25.63;;;4.90;;
58518;SDS011;44310;48.106;12.008;2022-11-11T01:44:45;24.50;;;4.55;;
58518;SDS011;44310;48.106;12.008;2022-11-11T01:47:13;21.27;;;4.83;;
58518;SDS011;44310;48.106;12.008;2022-11-11T01:49:52;16.27;;;4.05;;
58518;SDS011;44310;48.106;12.008;2022-11-11T01:52:25;25.15;;;4.60;;
58518;SDS011;44310;48.106;12.008;2022-11-11T01:55:04;16.17;;;4.18;;
58518;SDS011;44310;48.106;12.008;2022-11-11T01:57:47;28.85;;;5.00;;
58518;SDS011;44310;48.106;12.008;2022-11-11T02:00:17;30.67;;;5.47;;
58518;SDS011;44310;48.106;12.008;2022-11-11T02:03:04;25.13;;;5.57;;
58518;SDS011;44310;48.106;12.008;2022-11-11T02:05:33;34.75;;;6.13;;
58518;SDS011;44310;48.106;12.008;2022-11-11T02:13:39;24.88;;;5.57;;
58518;SDS011;44310;48.106;12.008;2022-11-11T02:16:27;22.63;;;4.68;;
58518;SDS011;44310;48.106;12.008;2022-11-11T02:18:55;25.55;;;4.43;;
58518;SDS011;44310;48.106;12.008;2022-11-11T02:21:32;17.27;;;4.03;;
58518;SDS011;44310;48.106;12.008;2022-11-11T02:24:07;18.77;;;4.32;;
58518;SDS011;44310;48.106;12.008;2022-11-11T02:26:38;35.20;;;5.40;;
58518;SDS011;44310;48.106;12.008;2022-11-11T02:29:14;30.50;;;5.90;;
58518;SDS011;44310;48.106;12.008;2022-11-11T02:31:44;26.70;;;4.78;;
58518;SDS011;44310;48.106;12.008;2022-11-11T02:34:11;22.48;;;4.40;;
58518;SDS011;44310;48.106;12.008;2022-11-11T02:36:39;22.53;;;4.33;;
58518;SDS011;44310;48.106;12.008;2022-11-11T02:39:08;16.77;;;3.60;;
58518;SDS011;44310;48.106;12.008;2022-11-11T02:41:35;11.35;;;2.80;;
58518;SDS011;44310;48.106;12.008;2022-11-11T02:44:21;9.25;;;2.72;;
58518;SDS011;44310;48.106;12.008;2022-11-11T02:46:49;12.20;;;2.80;;
58518;SDS011;44310;48.106;12.008;2022-11-11T02:49:16;11.18;;;2.63;;
58518;SDS011;44310;48.106;12.008;2022-11-11T02:51:43;10.18;;;2.60;;
58518;SDS011;44310;48.106;12.008;2022-11-11T02:54:10;8.47;;;2.50;;
58518;SDS011;44310;48.106;12.008;2022-11-11T02:56:37;8.50;;;2.17;;
58518;SDS011;44310;48.106;12.008;2022-11-11T02:59:23;16.85;;;3.53;;
58518;SDS011;44310;48.106;12.008;2022-11-11T03:01:50;11.80;;;3.10;;
58518;SDS011;44310;48.106;12.008;2022-11-11T03:04:18;12.07;;;2.50;;
58518;SDS011;44310;48.106;12.008;2022-11-11T03:06:45;10.70;;;2.50;;
58518;SDS011;44310;48.106;12.008;2022-11-11T03:09:12;12.32;;;2.50;;
58518;SDS011;44310;48.106;12.008;2022-11-11T03:11:39;8.82;;;2.40;;
58518;SDS011;44310;48.106;12.008;2022-11-11T03:14:07;10.82;;;2.33;;
58518;SDS011;44310;48.106;12.008;2022-11-11T03:16:34;7.17;;;2.30;;
58518;SDS011;44310;48.106;12.008;2022-11-11T03:19:20;10.05;;;2.40;;
58518;SDS011;44310;48.106;12.008;2022-11-11T03:21:47;8.90;;;2.00;;
58518;SDS011;44310;48.106;12.008;2022-11-11T03:24:34;7.18;;;2.05;;
58518;SDS011;44310;48.106;12.008;2022-11-11T03:27:20;7.68;;;2.25;;
58518;SDS011;44310;48.106;12.008;2022-11-11T03:29:47;7.55;;;2.00;;
58518;SDS011;44310;48.106;12.008;2022-11-11T03:32:14;7.80;;;2.25;;
58518;SDS011;44310;48.106;12.008;2022-11-11T03:34:41;14.10;;;3.13;;
58518;SDS011;44310;48.106;12.008;2022-11-11T03:37:09;11.70;;;2.70;;
58518;SDS011;44310;48.106;12.008;2022-11-11T03:39:55;12.10;;;2.90;;
58518;SDS011;44310;48.106;12.008;2022-11-11T03:42:22;11.13;;;2.67;;
58518;SDS011;44310;48.106;12.008;2022-11-11T03:44:49;10.73;;;2.05;;
58518;SDS011;44310;48.106;12.008;2022-11-11T03:47:16;13.90;;;2.90;;
58518;SDS011;44310;48.106;12.008;2022-11-11T03:49:43;14.52;;;2.67;;
58518;SDS011;44310;48.106;12.008;2022-11-11T03:52:11;14.68;;;2.75;;
58518;SDS011;44310;48.106;12.008;2022-11-11T03:54:38;26.83;;;5.37;;
58518;SDS011;44310;48.106;12.008;2022-11-11T03:57:05;37.97;;;6.85;;
58518;SDS011;44310;48.106;12.008;2022-11-11T03:59:51;25.83;;;5.57;;
58518;SDS011;44310;48.106;12.008;2022-11-11T04:02:18;26.52;;;4.90;;
58518;SDS011;44310;48.106;12.008;2022-11-11T04:05:04;29.80;;;8.77;;
58518;SDS011;44310;48.106;12.008;2022-11-11T04:07:50;33.15;;;17.02;;
58518;SDS011;44310;48.106;12.008;2022-11-11T04:10:36;63.05;;;13.32;;
58518;SDS011;44310;48.106;12.008;2022-11-11T04:13:03;18.15;;;4.93;;
58518;SDS011;44310;48.106;12.008;2022-11-11T04:15:50;23.15;;;20.75;;
58518;SDS011;44310;48.106;12.008;2022-11-11T04:18:32;25.67;;;20.38;;
58518;SDS011;44310;48.106;12.008;2022-11-11T04:21:22;19.80;;;17.75;;
58518;SDS011;44310;48.106;12.008;2022-11-11T04:24:16;18.97;;;16.70;;
58518;SDS011;44310;48.106;12.008;2022-11-11T04:27:04;19.40;;;14.52;;
58518;SDS011;44310;48.106;12.008;2022-11-11T04:29:33;15.10;;;13.60;;
58518;SDS011;44310;48.106;12.008;2022-11-11T04:32:01;15.68;;;14.38;;
58518;SDS011;44310;48.106;12.008;2022-11-11T04:34:51;16.92;;;15.32;;
58518;SDS011;44310;48.106;12.008;2022-11-11T04:37:26;16.90;;;15.50;;
58518;SDS011;44310;48.106;12.008;2022-11-11T04:39:55;16.70;;;15.20;;
58518;SDS011;44310;48.106;12.008;2022-11-11T04:42:41;16.20;;;15.00;;
58518;SDS011;44310;48.106;12.008;2022-11-11T04:45:09;16.33;;;14.82;;
58518;SDS011;44310;48.106;12.008;2022-11-11T04:47:57;15.10;;;14.05;;
58518;SDS011;44310;48.106;12.008;2022-11-11T04:50:27;49.60;;;22.40;;
58518;SDS011;44310;48.106;12.008;2022-11-11T04:52:59;20.90;;;16.07;;
58518;SDS011;44310;48.106;12.008;2022-11-11T04:55:26;20.77;;;16.77;;
58518;SDS011;44310;48.106;12.008;2022-11-11T04:58:12;20.50;;;17.90;;
58518;SDS011;44310;48.106;12.008;2022-11-11T05:00:40;19.50;;;17.60;;
58518;SDS011;44310;48.106;12.008;2022-11-11T05:03:11;28.00;;;19.73;;
58518;SDS011;44310;48.106;12.008;2022-11-11T05:05:46;31.40;;;18.73;;
58518;SDS011;44310;48.106;12.008;2022-11-11T05:08:34;32.08;;;20.15;;
58518;SDS011;44310;48.106;12.008;2022-11-11T05:11:25;33.58;;;20.52;;
58518;SDS011;44310;48.106;12.008;2022-11-11T05:13:53;31.80;;;19.57;;
58518;SDS011;44310;48.106;12.008;2022-11-11T05:16:41;29.70;;;20.10;;
58518;SDS011;44310;48.106;12.008;2022-11-11T05:19:32;42.25;;;20.88;;
58518;SDS011;44310;48.106;12.008;2022-11-11T05:22:18;38.53;;;19.33;;
58518;SDS011;44310;48.106;12.008;2022-11-11T05:24:49;30.20;;;19.33;;
58518;SDS011;44310;48.106;12.008;2022-11-11T05:27:35;35.50;;;19.77;;
58518;SDS011;44310;48.106;12.008;2022-11-11T05:30:03;26.73;;;18.27;;
58518;SDS011;44310;48.106;12.008;2022-11-11T05:32:31;61.73;;;23.43;;
58518;SDS011;44310;48.106;12.008;2022-11-11T05:34:58;63.90;;;26.90;;
58518;SDS011;44310;48.106;12.008;2022-11-11T05:37:25;52.33;;;28.10;;
58518;SDS011;44310;48.106;12.008;2022-11-11T05:39:52;51.27;;;29.23;;
58518;SDS011;44310;48.106;12.008;2022-11-11T05:42:20;45.20;;;24.92;;
58518;SDS011;44310;48.106;12.008;2022-11-11T05:44:47;50.20;;;23.92;;
58518;SDS011;44310;48.106;12.008;2022-11-11T05:47:14;49.55;;;23.15;;
58518;SDS011;44310;48.106;12.008;2022-11-11T05:49:42;81.00;;;14.73;;
58518;SDS011;44310;48.106;12.008;2022-11-11T05:52:10;49.47;;;10.60;;
58518;SDS011;44310;48.106;12.008;2022-11-11T05:54:38;43.53;;;8.40;;
58518;SDS011;44310;48.106;12.008;2022-11-11T05:57:05;38.28;;;7.95;;
58518;SDS011;44310;48.106;12.008;2022-11-11T05:59:32;31.08;;;6.53;;
58518;SDS011;44310;48.106;12.008;2022-11-11T06:01:59;31.35;;;6.07;;
58518;SDS011;44310;48.106;12.008;2022-11-11T06:04:27;28.05;;;5.63;;
58518;SDS011;44310;48.106;12.008;2022-11-11T06:06:54;26.95;;;6.38;;
58518;SDS011;44310;48.106;12.008;2022-11-11T06:09:21;31.98;;;5.35;;
58518;SDS011;44310;48.106;12.008;2022-11-11T06:11:48;29.92;;;5.88;;
58518;SDS011;44310;48.106;12.008;2022-11-11T06:14:15;39.47;;;7.55;;
58518;SDS011;44310;48.106;12.008;2022-11-11T06:16:42;33.90;;;7.00;;
58518;SDS011;44310;48.106;12.008;2022-11-11T06:19:09;39.95;;;7.03;;
58518;SDS011;44310;48.106;12.008;2022-11-11T06:21:36;31.25;;;6.00;;
58518;SDS011;44310;48.106;12.008;2022-11-11T06:24:22;30.93;;;6.00;;
58518;SDS011;44310;48.106;12.008;2022-11-11T06:26:55;23.40;;;5.57;;
58518;SDS011;44310;48.106;12.008;2022-11-11T06:29:22;24.70;;;4.88;;
58518;SDS011;44310;48.106;12.008;2022-11-11T06:31:49;23.88;;;5.15;;
58518;SDS011;44310;48.106;12.008;2022-11-11T06:34:16;23.83;;;4.90;;
58518;SDS011;44310;48.106;12.008;2022-11-11T06:36:44;18.50;;;4.05;;
58518;SDS011;44310;48.106;12.008;2022-11-11T06:39:11;17.83;;;4.07;;
58518;SDS011;44310;48.106;12.008;2022-11-11T06:41:38;15.60;;;3.95;;
58518;SDS011;44310;48.106;12.008;2022-11-11T06:44:05;18.10;;;3.75;;
58518;SDS011;44310;48.106;12.008;2022-11-11T06:46:32;13.02;;;3.45;;
58518;SDS011;44310;48.106;12.008;2022-11-11T06:48:59;10.95;;;3.30;;
58518;SDS011;44310;48.106;12.008;2022-11-11T06:51:26;11.73;;;3.10;;
58518;SDS011;44310;48.106;12.008;2022-11-11T06:53:53;11.77;;;2.93;;
58518;SDS011;44310;48.106;12.008;2022-11-11T06:56:20;13.03;;;3.73;;
58518;SDS011;44310;48.106;12.008;2022-11-11T06:58:47;12.43;;;3.03;;
58518;SDS011;44310;48.106;12.008;2022-11-11T07:01:14;17.30;;;3.63;;
58518;SDS011;44310;48.106;12.008;2022-11-11T07:03:41;13.63;;;3.23;;
58518;SDS011;44310;48.106;12.008;2022-11-11T07:06:08;11.37;;;3.80;;
58518;SDS011;44310;48.106;12.008;2022-11-11T07:08:36;17.03;;;4.10;;
58518;SDS011;44310;48.106;12.008;2022-11-11T07:11:03;13.23;;;2.97;;
58518;SDS011;44310;48.106;12.008;2022-11-11T07:13:43;38.83;;;7.15;;
58518;SDS011;44310;48.106;12.008;2022-11-11T07:16:10;35.63;;;6.32;;
58518;SDS011;44310;48.106;12.008;2022-11-11T07:18:37;22.05;;;5.15;;
58518;SDS011;44310;48.106;12.008;2022-11-11T07:21:04;25.55;;;5.35;;
58518;SDS011;44310;48.106;12.008;2022-11-11T07:23:32;30.27;;;6.57;;
58518;SDS011;44310;48.106;12.008;2022-11-11T07:25:59;30.48;;;6.72;;
58518;SDS011;44310;48.106;12.008;2022-11-11T07:28:26;30.30;;;5.75;;
58518;SDS011;44310;48.106;12.008;2022-11-11T07:30:53;33.00;;;6.57;;
58518;SDS011;44310;48.106;12.008;2022-11-11T07:33:20;33.55;;;6.75;;
58518;SDS011;44310;48.106;12.008;2022-11-11T07:35:50;32.70;;;6.95;;
58518;SDS011;44310;48.106;12.008;2022-11-11T07:38:17;45.53;;;7.28;;
58518;SDS011;44310;48.106;12.008;2022-11-11T07:40:44;28.60;;;5.82;;
58518;SDS011;44310;48.106;12.008;2022-11-11T07:43:11;34.13;;;6.38;;
58518;SDS011;44310;48.106;12.008;2022-11-11T07:45:38;34.67;;;6.43;;
58518;SDS011;44310;48.106;12.008;2022-11-11T07:48:06;28.23;;;5.70;;
58518;SDS011;44310;48.106;12.008;2022-11-11T07:50:33;27.30;;;5.20;;
58518;SDS011;44310;48.106;12.008;2022-11-11T07:53:00;24.57;;;5.80;;
58518;SDS011;44310;48.106;12.008;2022-11-11T07:55:27;20.80;;;5.05;;
58518;SDS011;44310;48.106;12.008;2022-11-11T07:57:54;27.30;;;6.33;;
58518;SDS011;44310;48.106;12.008;2022-11-11T08:00:23;73.45;;;12.90;;
58518;SDS011;44310;48.106;12.008;2022-11-11T08:02:51;218.52;;;34.80;;
58518;SDS011;44310;48.106;12.008;2022-11-11T08:05:24;156.27;;;25.63;;
58518;SDS011;44310;48.106;12.008;2022-11-11T08:07:51;110.07;;;19.45;;
58518;SDS011;44310;48.106;12.008;2022-11-11T08:10:18;98.95;;;18.17;;
58518;SDS011;44310;48.106;12.008;2022-11-11T08:12:46;99.97;;;16.10;;
58518;SDS011;44310;48.106;12.008;2022-11-11T08:15:38;63.07;;;12.00;;
58518;SDS011;44310;48.106;12.008;2022-11-11T08:18:05;48.53;;;9.47;;
58518;SDS011;44310;48.106;12.008;2022-11-11T08:20:32;45.00;;;8.73;;
58518;SDS011;44310;48.106;12.008;2022-11-11T08:22:59;45.00;;;8.93;;
58518;SDS011;44310;48.106;12.008;2022-11-11T08:25:49;45.00;;;9.07;;
58518;SDS011;44310;48.106;12.008;2022-11-11T08:28:16;37.13;;;7.17;;
58518;SDS011;44310;48.106;12.008;2022-11-11T08:30:43;24.57;;;5.87;;
58518;SDS011;44310;48.106;12.008;2022-11-11T08:33:10;29.50;;;6.27;;
58518;SDS011;44310;48.106;12.008;2022-11-11T08:35:58;35.33;;;6.80;;
58518;SDS011;44310;48.106;12.008;2022-11-11T08:38:25;24.77;;;6.07;;
58518;SDS011;44310;48.106;12.008;2022-11-11T08:40:53;27.52;;;5.30;;
58518;SDS011;44310;48.106;12.008;2022-11-11T08:43:20;20.85;;;4.40;;
58518;SDS011;44310;48.106;12.008;2022-11-11T08:45:51;25.75;;;5.20;;
58518;SDS011;44310;48.106;12.008;2022-11-11T08:48:19;24.17;;;5.00;;
58518;SDS011;44310;48.106;12.008;2022-11-11T08:50:46;17.87;;;3.83;;
58518;SDS011;44310;48.106;12.008;2022-11-11T08:53:13;49.73;;;9.83;;
58518;SDS011;44310;48.106;12.008;2022-11-11T08:55:40;52.97;;;9.30;;
58518;SDS011;44310;48.106;12.008;2022-11-11T08:58:09;38.60;;;6.47;;
58518;SDS011;44310;48.106;12.008;2022-11-11T09:00:36;19.67;;;4.43;;
58518;SDS011;44310;48.106;12.008;2022-11-11T09:03:04;14.40;;;3.50;;
58518;SDS011;44310;48.106;12.008;2022-11-11T09:05:33;31.35;;;6.28;;
58518;SDS011;44310;48.106;12.008;2022-11-11T09:08:01;35.20;;;6.00;;
58518;SDS011;44310;48.106;12.008;2022-11-11T09:10:33;17.00;;;3.97;;
58518;SDS011;44310;48.106;12.008;2022-11-11T09:13:01;43.28;;;7.15;;
58518;SDS011;44310;48.106;12.008;2022-11-11T09:15:29;35.03;;;6.60;;
58518;SDS011;44310;48.106;12.008;2022-11-11T09:17:56;21.90;;;5.18;;
58518;SDS011;44310;48.106;12.008;2022-11-11T09:20:23;16.65;;;4.07;;
58518;SDS011;44310;48.106;12.008;2022-11-11T09:22:51;41.00;;;7.70;;
58518;SDS011;44310;48.106;12.008;2022-11-11T09:25:19;232.20;;;36.78;;
58518;SDS011;44310;48.106;12.008;2022-11-11T09:30:26;160.43;;;24.58;;
58518;SDS011;44310;48.106;12.008;2022-11-11T09:32:59;147.23;;;23.35;;
58518;SDS011;44310;48.106;12.008;2022-11-11T09:35:27;70.40;;;14.27;;
58518;SDS011;44310;48.106;12.008;2022-11-11T09:37:56;65.63;;;11.75;;
58518;SDS011;44310;48.106;12.008;2022-11-11T09:40:25;82.72;;;12.80;;
58518;SDS011;44310;48.106;12.008;2022-11-11T09:43:04;55.05;;;9.65;;
58518;SDS011;44310;48.106;12.008;2022-11-11T09:46:06;61.25;;;10.88;;
58518;SDS011;44310;48.106;12.008;2022-11-11T09:52:02;115.35;;;19.33;;
58518;SDS011;44310;48.106;12.008;2022-11-11T09:54:34;75.35;;;12.13;;
58518;SDS011;44310;48.106;12.008;2022-11-11T09:57:18;52.38;;;11.48;;
58518;SDS011;44310;48.106;12.008;2022-11-11T10:02:51;46.38;;;7.85;;
58518;SDS011;44310;48.106;12.008;2022-11-11T10:05:21;44.05;;;7.50;;
58518;SDS011;44310;48.106;12.008;2022-11-11T10:10:52;19.30;;;4.15;;
58518;SDS011;44310;48.106;12.008;2022-11-11T10:13:22;22.10;;;5.00;;
58518;SDS011;44310;48.106;12.008;2022-11-11T10:16:16;138.73;;;25.15;;
58518;SDS011;44310;48.106;12.008;2022-11-11T10:21:28;161.77;;;26.15;;
58518;SDS011;44310;48.106;12.008;2022-11-11T10:24:34;130.70;;;20.57;;
58518;SDS011;44310;48.106;12.008;2022-11-11T10:27:16;102.60;;;17.20;;
58518;SDS011;44310;48.106;12.008;2022-11-11T10:29:45;88.35;;;16.63;;
58518;SDS011;44310;48.106;12.008;2022-11-11T10:32:15;92.75;;;16.45;;
58518;SDS011;44310;48.106;12.008;2022-11-11T10:34:47;85.22;;;14.85;;
58518;SDS011;44310;48.106;12.008;2022-11-11T10:37:19;95.87;;;15.60;;
58518;SDS011;44310;48.106;12.008;2022-11-11T10:42:43;96.93;;;16.40;;
58518;SDS011;44310;48.106;12.008;2022-11-11T10:56:08;57.58;;;10.52;;
58518;SDS011;44310;48.106;12.008;2022-11-11T10:58:47;52.65;;;9.95;;
58518;SDS011;44310;48.106;12.008;2022-11-11T11:01:24;55.67;;;10.30;;
58518;SDS011;44310;48.106;12.008;2022-11-11T11:03:58;46.33;;;7.97;;
58518;SDS011;44310;48.106;12.008;2022-11-11T11:06:37;41.70;;;8.23;;
58518;SDS011;44310;48.106;12.008;2022-11-11T11:12:17;38.60;;;7.47;;
58518;SDS011;44310;48.106;12.008;2022-11-11T11:14:52;41.77;;;7.70;;
58518;SDS011;44310;48.106;12.008;2022-11-11T11:17:26;36.53;;;6.55;;
58518;SDS011;44310;48.106;12.008;2022-11-11T11:20:07;28.60;;;6.47;;
58518;SDS011;44310;48.106;12.008;2022-11-11T11:25:12;23.45;;;5.82;;
58518;SDS011;44310;48.106;12.008;2022-11-11T11:27:40;27.50;;;5.23;;
58518;SDS011;44310;48.106;12.008;2022-11-11T11:30:10;18.58;;;4.43;;
58518;SDS011;44310;48.106;12.008;2022-11-11T11:32:56;21.13;;;4.77;;
58518;SDS011;44310;48.106;12.008;2022-11-11T11:35:28;35.83;;;7.47;;
58518;SDS011;44310;48.106;12.008;2022-11-11T11:37:58;39.57;;;7.30;;
58518;SDS011;44310;48.106;12.008;2022-11-11T11:40:25;36.93;;;7.87;;
58518;SDS011;44310;48.106;12.008;2022-11-11T11:42:52;43.88;;;8.25;;
58518;SDS011;44310;48.106;12.008;2022-11-11T11:50:50;33.03;;;7.65;;
58518;SDS011;44310;48.106;12.008;2022-11-11T11:53:46;49.43;;;9.47;;
58518;SDS011;44310;48.106;12.008;2022-11-11T11:56:40;44.40;;;8.63;;
58518;SDS011;44310;48.106;12.008;2022-11-11T11:59:12;52.90;;;10.20;;
58518;SDS011;44310;48.106;12.008;2022-11-11T12:21:52;37.35;;;7.65;;
58518;SDS011;44310;48.106;12.008;2022-11-11T12:24:47;33.33;;;8.10;;
58518;SDS011;44310;48.106;12.008;2022-11-11T12:30:09;50.30;;;8.50;;
58518;SDS011;44310;48.106;12.008;2022-11-11T12:32:53;59.28;;;11.63;;
58518;SDS011;44310;48.106;12.008;2022-11-11T12:41:15;47.13;;;9.15;;
58518;SDS011;44310;48.106;12.008;2022-11-11T12:43:55;43.53;;;10.15;;
58518;SDS011;44310;48.106;12.008;2022-11-11T12:52:14;40.00;;;7.93;;
58518;SDS011;44310;48.106;12.008;2022-11-11T12:55:18;38.03;;;8.15;;
58518;SDS011;44310;48.106;12.008;2022-11-11T13:00:53;67.10;;;12.43;;
58518;SDS011;44310;48.106;12.008;2022-11-11T13:06:18;55.30;;;9.63;;
58518;SDS011;44310;48.106;12.008;2022-11-11T13:09:06;50.45;;;9.30;;
58518;SDS011;44310;48.106;12.008;2022-11-11T13:12:06;53.97;;;9.98;;
58518;SDS011;44310;48.106;12.008;2022-11-11T13:15:03;60.50;;;11.00;;
58518;SDS011;44310;48.106;12.008;2022-11-11T13:17:39;54.83;;;9.52;;
58518;SDS011;44310;48.106;12.008;2022-11-11T13:22:58;53.42;;;9.93;;
58518;SDS011;44310;48.106;12.008;2022-11-11T13:25:28;46.85;;;9.63;;
58518;SDS011;44310;48.106;12.008;2022-11-11T13:28:03;36.75;;;7.55;;
58518;SDS011;44310;48.106;12.008;2022-11-11T13:33:16;33.42;;;6.15;;
58518;SDS011;44310;48.106;12.008;2022-11-11T13:35:57;29.23;;;6.72;;
58518;SDS011;44310;48.106;12.008;2022-11-11T13:38:34;23.83;;;5.90;;
58518;SDS011;44310;48.106;12.008;2022-11-11T13:41:03;27.33;;;5.80;;
58518;SDS011;44310;48.106;12.008;2022-11-11T13:43:38;23.75;;;5.72;;
58518;SDS011;44310;48.106;12.008;2022-11-11T13:49:01;24.63;;;5.37;;
58518;SDS011;44310;48.106;12.008;2022-11-11T13:51:34;44.58;;;8.48;;
58518;SDS011;44310;48.106;12.008;2022-11-11T13:54:05;44.05;;;8.70;;
58518;SDS011;44310;48.106;12.008;2022-11-11T13:56:51;60.63;;;12.40;;
58518;SDS011;44310;48.106;12.008;2022-11-11T13:59:27;55.05;;;11.48;;
58518;SDS011;44310;48.106;12.008;2022-11-11T14:20:45;39.15;;;8.38;;
58518;SDS011;44310;48.106;12.008;2022-11-11T14:28:32;48.63;;;9.35;;
58518;SDS011;44310;48.106;12.008;2022-11-11T14:39:14;42.45;;;7.90;;
58518;SDS011;44310;48.106;12.008;2022-11-11T14:42:02;39.72;;;8.05;;
58518;SDS011;44310;48.106;12.008;2022-11-11T14:57:56;31.25;;;6.95;;
58518;SDS011;44310;48.106;12.008;2022-11-11T15:00:28;26.75;;;6.07;;
58518;SDS011;44310;48.106;12.008;2022-11-11T15:03:00;29.25;;;6.28;;
58518;SDS011;44310;48.106;12.008;2022-11-11T15:06:02;26.37;;;5.63;;
58518;SDS011;44310;48.106;12.008;2022-11-11T15:08:36;20.23;;;4.93;;
58518;SDS011;44310;48.106;12.008;2022-11-11T15:11:18;19.65;;;5.03;;
58518;SDS011;44310;48.106;12.008;2022-11-11T15:14:07;30.85;;;5.97;;
58518;SDS011;44310;48.106;12.008;2022-11-11T15:25:29;31.40;;;5.97;;
58518;SDS011;44310;48.106;12.008;2022-11-11T15:31:19;30.45;;;6.40;;
58518;SDS011;44310;48.106;12.008;2022-11-11T15:37:13;48.08;;;7.57;;
58518;SDS011;44310;48.106;12.008;2022-11-11T15:39:45;42.60;;;7.22;;
58518;SDS011;44310;48.106;12.008;2022-11-11T15:42:23;40.50;;;7.07;;
58518;SDS011;44310;48.106;12.008;2022-11-11T15:44:57;35.15;;;7.13;;
58518;SDS011;44310;48.106;12.008;2022-11-11T15:47:26;32.47;;;6.40;;
58518;SDS011;44310;48.106;12.008;2022-11-11T15:50:00;34.13;;;6.55;;
58518;SDS011;44310;48.106;12.008;2022-11-11T15:52:28;46.83;;;8.70;;
58518;SDS011;44310;48.106;12.008;2022-11-11T15:54:57;36.65;;;7.03;;
58518;SDS011;44310;48.106;12.008;2022-11-11T15:57:33;38.17;;;6.90;;
58518;SDS011;44310;48.106;12.008;2022-11-11T16:00:02;34.35;;;6.43;;
58518;SDS011;44310;48.106;12.008;2022-11-11T16:02:45;20.85;;;5.18;;
58518;SDS011;44310;48.106;12.008;2022-11-11T16:05:17;32.67;;;6.45;;
58518;SDS011;44310;48.106;12.008;2022-11-11T16:07:48;30.20;;;5.28;;
58518;SDS011;44310;48.106;12.008;2022-11-11T16:10:29;25.33;;;5.22;;
58518;SDS011;44310;48.106;12.008;2022-11-11T16:13:04;26.27;;;5.15;;
58518;SDS011;44310;48.106;12.008;2022-11-11T16:15:49;25.15;;;5.22;;
58518;SDS011;44310;48.106;12.008;2022-11-11T16:18:28;18.73;;;5.38;;
58518;SDS011;44310;48.106;12.008;2022-11-11T16:23:27;23.40;;;4.90;;
58518;SDS011;44310;48.106;12.008;2022-11-11T16:25:56;19.20;;;4.50;;
58518;SDS011;44310;48.106;12.008;2022-11-11T16:28:29;15.93;;;4.30;;
58518;SDS011;44310;48.106;12.008;2022-11-11T16:31:19;18.27;;;4.20;;
58518;SDS011;44310;48.106;12.008;2022-11-11T16:33:52;19.27;;;4.22;;
58518;SDS011;44310;48.106;12.008;2022-11-11T16:36:19;23.13;;;4.75;;
58518;SDS011;44310;48.106;12.008;2022-11-11T16:38:46;15.70;;;3.60;;
58518;SDS011;44310;48.106;12.008;2022-11-11T16:43:50;20.40;;;5.13;;
58518;SDS011;44310;48.106;12.008;2022-11-11T16:46:52;25.00;;;6.40;;
58518;SDS011;44310;48.106;12.008;2022-11-11T16:54:14;28.92;;;5.65;;
58518;SDS011;44310;48.106;12.008;2022-11-11T16:56:51;44.35;;;7.25;;
58518;SDS011;44310;48.106;12.008;2022-11-11T16:59:23;65.07;;;9.77;;
58518;SDS011;44310;48.106;12.008;2022-11-11T17:02:16;43.07;;;8.23;;
58518;SDS011;44310;48.106;12.008;2022-11-11T17:04:49;45.17;;;7.70;;
58518;SDS011;44310;48.106;12.008;2022-11-11T17:12:35;36.30;;;7.88;;
58518;SDS011;44310;48.106;12.008;2022-11-11T17:15:03;43.63;;;7.75;;
58518;SDS011;44310;48.106;12.008;2022-11-11T17:17:31;33.47;;;6.68;;
58518;SDS011;44310;48.106;12.008;2022-11-11T17:19:59;39.63;;;7.57;;
58518;SDS011;44310;48.106;12.008;2022-11-11T17:22:31;37.63;;;7.77;;
58518;SDS011;44310;48.106;12.008;2022-11-11T17:24:58;53.63;;;9.75;;
58518;SDS011;44310;48.106;12.008;2022-11-11T17:27:29;51.40;;;9.65;;
58518;SDS011;44310;48.106;12.008;2022-11-11T17:29:57;39.72;;;7.43;;
58518;SDS011;44310;48.106;12.008;2022-11-11T17:32:24;33.35;;;7.35;;
58518;SDS011;44310;48.106;12.008;2022-11-11T17:34:51;39.15;;;7.85;;
58518;SDS011;44310;48.106;12.008;2022-11-11T17:37:18;43.67;;;9.02;;
58518;SDS011;44310;48.106;12.008;2022-11-11T17:39:45;74.93;;;12.20;;
58518;SDS011;44310;48.106;12.008;2022-11-11T17:42:12;61.33;;;11.50;;
58518;SDS011;44310;48.106;12.008;2022-11-11T17:44:40;66.05;;;11.38;;
58518;SDS011;44310;48.106;12.008;2022-11-11T17:47:07;58.72;;;11.50;;
58518;SDS011;44310;48.106;12.008;2022-11-11T17:49:34;49.30;;;9.32;;